KTDZ/TDZ METAR and TAF weather

Enter ICAO airport designator
Station Type Date Time Source
KTDZ METAR 2022/05/23 13:53 UTC NOAA

KTDZ 231353Z AUTO 05012G20KT 10SM OVC025 13/06 A3036 RMK AO2 SLP281 T01330061


Station Type Date Time Source
KTDZ Decoded METAR 2022/05/23 13:53 UTC NOAA

TOLEDO METCALF FIELD, OH, United States (KTDZ) 41-34N 83-29W 189M
May 23, 2022 - 09:53 AM EDT / 2022.05.23 1353 UTC
Wind: from the NE (050 degrees) at 14 MPH (12 KT) gusting to 23 MPH (20 KT):0
Visibility: 10 mile(s):0
Sky conditions: overcast
Temperature: 55.9 F (13.3 C)
Dew Point: 43.0 F (6.1 C)
Relative Humidity: 61%
Pressure (altimeter): 30.36 in. Hg (1028 hPa)
ob: KTDZ 231353Z AUTO 05012G20KT 10SM OVC025 13/06 A3036 RMK AO2 SLP281 T01330061
cycle: 14

Station Type Date Time Source
KTDZ TAF UTC NOAA

Error!

Example: see airport list